China, TX

6:55 AM CDT on October 20, 2019 (GMT -0500)
Beaumont Municipal | | Change Station
Active Advisory: Coastal Flood Advisory Active Notice: Coastal Flood Advisory

Elev 33 ft 30.07 °N, 94.22 °W | Updated 20 minutes ago

Overcast
Overcast
75 °F
Feels Like 75 °F
N
0
Wind Variable Wind from North

Today
High -- | Low -- °F
--% Chance of Precip.
Yesterday
High -- | Low -- °F
Precip. -- in
Pressure 29.82 in
Visibility 0.5 miles
Clouds Mostly Cloudy 300 ft
Mostly Cloudy 700 ft
Overcast 1100 ft
Dew Point 74 °F
Humidity 96%
Rainfall 0.00 in
Snow Depth Not available.
7:22 AM 6:41 PM
Waning Gibbous, 61% visible
METAR KBMT 201135Z AUTO 00000KT 1/2SM FG BKN003 BKN007 OVC011 24/23 A2982 RMK AO2 T02380232
Pressure 29.82 in
Visibility 0.5 miles
Clouds Mostly Cloudy 300 ft
Mostly Cloudy 700 ft
Overcast 1100 ft
Dew Point 74 °F
Humidity 96%
Rainfall 0.00 in
Snow Depth Not available.
7:22 AM 6:41 PM
Waning Gibbous, 61% visible
METAR KBMT 201135Z AUTO 00000KT 1/2SM FG BKN003 BKN007 OVC011 24/23 A2982 RMK AO2 T02380232

Get Your Daily Forecast Email!

Thanks for signing up!

Be on the lookout for a verification email in your inbox.

You'll start receiving severe weather alerts in your inbox..

×

10-Day Weather Forecast

Almanac

Astronomy

Oct. 20, 2019 Rise Set
Actual Time
Civil Twilight
Nautical Twilight
Astronomical Twilight
Moon
Length of Visible Light
Length of Day
Tomorrow will be .
, % of the Moon is Illuminated

Today's Extremes

State Highs State Lows

Community

WunderPhotos

Category 6

Welcome to Category 6. This is the collective home for Weather Underground's featured writeups by Dr. Jeff Masters (right), Bob Henson (left), Chris Burt, and other regular contributors.

Nearby

Air Quality

  Air Quality AQ Index Pollutant
Not available.

Snow Depth

Station Depth Elevation

Earthquake Activity

City Distance Mag. Time & Date
Minimum magnitude displayed is 2.5.

Coastal Water Temperatures

Place Temperature

Stations

Nearby Weather Stations

Station Location Temp. Windchill Dew Point Humidity Wind Precip. Elev Updated Type
                   

Watches & Warnings

Coastal Flood Advisory
Issued: 3:26 AM CDT Oct. 20, 2019 – National Weather Service

... Coastal flood advisory now in effect until 11 am CDT Monday...

* coastal flooding... minor coastal flooding of around 1.5 to 2
feet mean higher high water or above ground level right along
the coast and around the coastal lakes and bays.

* Timing... during high tide along the coast early this morning
and again this evening into Monday morning. Also, during high
tide in the Inland Lakes and bays during Monday morning.

* Impacts... minor flooding of roads along the coast and roads
along the tidal waterways.

Precautionary/preparedness actions...

A coastal flood advisory indicates that onshore winds and tides
will combine to generate flooding of low areas along the shore.